sensor_id;sensor_type;location;lat;lon;timestamp;P1;durP1;ratioP1;P2;durP2;ratioP2
33714;SDS011;20043;50.998;4.754;2023-04-16T00:01:26;15.73;;;2.97;;
33714;SDS011;20043;50.998;4.754;2023-04-16T00:03:52;13.30;;;2.58;;
33714;SDS011;20043;50.998;4.754;2023-04-16T00:06:18;7.00;;;2.28;;
33714;SDS011;20043;50.998;4.754;2023-04-16T00:08:43;14.18;;;3.15;;
33714;SDS011;20043;50.998;4.754;2023-04-16T00:11:09;13.05;;;3.38;;
33714;SDS011;20043;50.998;4.754;2023-04-16T00:13:35;15.52;;;3.05;;
33714;SDS011;20043;50.998;4.754;2023-04-16T00:16:01;15.00;;;2.70;;
33714;SDS011;20043;50.998;4.754;2023-04-16T00:18:27;12.38;;;2.50;;
33714;SDS011;20043;50.998;4.754;2023-04-16T00:20:52;13.00;;;2.30;;
33714;SDS011;20043;50.998;4.754;2023-04-16T00:23:18;12.30;;;2.50;;
33714;SDS011;20043;50.998;4.754;2023-04-16T00:25:44;10.73;;;1.98;;
33714;SDS011;20043;50.998;4.754;2023-04-16T00:28:10;14.38;;;2.10;;
33714;SDS011;20043;50.998;4.754;2023-04-16T00:30:35;13.32;;;2.05;;
33714;SDS011;20043;50.998;4.754;2023-04-16T00:33:01;14.20;;;2.17;;
33714;SDS011;20043;50.998;4.754;2023-04-16T00:35:28;14.60;;;1.98;;
33714;SDS011;20043;50.998;4.754;2023-04-16T00:37:54;17.58;;;2.40;;
33714;SDS011;20043;50.998;4.754;2023-04-16T00:40:20;11.02;;;1.75;;
33714;SDS011;20043;50.998;4.754;2023-04-16T00:42:45;11.50;;;2.05;;
33714;SDS011;20043;50.998;4.754;2023-04-16T00:45:11;13.77;;;2.17;;
33714;SDS011;20043;50.998;4.754;2023-04-16T00:47:37;11.13;;;1.90;;
33714;SDS011;20043;50.998;4.754;2023-04-16T00:50:03;12.05;;;2.15;;
33714;SDS011;20043;50.998;4.754;2023-04-16T00:52:30;7.22;;;1.88;;
33714;SDS011;20043;50.998;4.754;2023-04-16T00:54:56;6.70;;;1.63;;
33714;SDS011;20043;50.998;4.754;2023-04-16T00:57:23;9.85;;;1.58;;
33714;SDS011;20043;50.998;4.754;2023-04-16T00:59:48;11.65;;;1.70;;
33714;SDS011;20043;50.998;4.754;2023-04-16T01:02:14;11.52;;;1.85;;
33714;SDS011;20043;50.998;4.754;2023-04-16T01:04:40;8.05;;;1.60;;
33714;SDS011;20043;50.998;4.754;2023-04-16T01:07:06;8.35;;;1.58;;
33714;SDS011;20043;50.998;4.754;2023-04-16T01:09:32;11.05;;;1.30;;
33714;SDS011;20043;50.998;4.754;2023-04-16T01:11:57;10.48;;;2.03;;
33714;SDS011;20043;50.998;4.754;2023-04-16T01:14:23;10.57;;;2.00;;
33714;SDS011;20043;50.998;4.754;2023-04-16T01:16:49;8.70;;;1.83;;
33714;SDS011;20043;50.998;4.754;2023-04-16T01:19:14;18.65;;;2.30;;
33714;SDS011;20043;50.998;4.754;2023-04-16T01:21:40;12.95;;;2.72;;
33714;SDS011;20043;50.998;4.754;2023-04-16T01:24:05;9.10;;;2.10;;
33714;SDS011;20043;50.998;4.754;2023-04-16T01:26:31;10.02;;;2.15;;
33714;SDS011;20043;50.998;4.754;2023-04-16T01:28:57;7.93;;;1.90;;
33714;SDS011;20043;50.998;4.754;2023-04-16T01:31:23;11.27;;;2.55;;
33714;SDS011;20043;50.998;4.754;2023-04-16T01:33:49;16.50;;;2.90;;
33714;SDS011;20043;50.998;4.754;2023-04-16T01:36:15;11.60;;;2.63;;
33714;SDS011;20043;50.998;4.754;2023-04-16T01:38:40;10.25;;;2.60;;
33714;SDS011;20043;50.998;4.754;2023-04-16T01:41:06;10.68;;;3.25;;
33714;SDS011;20043;50.998;4.754;2023-04-16T01:43:32;12.98;;;3.35;;
33714;SDS011;20043;50.998;4.754;2023-04-16T01:46:10;18.23;;;3.60;;
33714;SDS011;20043;50.998;4.754;2023-04-16T01:48:39;15.25;;;3.60;;
33714;SDS011;20043;50.998;4.754;2023-04-16T01:51:04;14.70;;;3.78;;
33714;SDS011;20043;50.998;4.754;2023-04-16T01:53:30;11.27;;;3.65;;
33714;SDS011;20043;50.998;4.754;2023-04-16T01:55:56;8.13;;;3.65;;
33714;SDS011;20043;50.998;4.754;2023-04-16T01:58:21;9.70;;;3.33;;
33714;SDS011;20043;50.998;4.754;2023-04-16T02:00:47;17.63;;;4.20;;
33714;SDS011;20043;50.998;4.754;2023-04-16T02:03:12;14.35;;;4.20;;
33714;SDS011;20043;50.998;4.754;2023-04-16T02:05:41;17.20;;;3.80;;
33714;SDS011;20043;50.998;4.754;2023-04-16T02:08:06;11.50;;;4.00;;
33714;SDS011;20043;50.998;4.754;2023-04-16T02:10:32;13.80;;;3.75;;
33714;SDS011;20043;50.998;4.754;2023-04-16T02:12:58;17.98;;;3.80;;
33714;SDS011;20043;50.998;4.754;2023-04-16T02:15:23;13.02;;;4.38;;
33714;SDS011;20043;50.998;4.754;2023-04-16T02:17:49;17.98;;;4.65;;
33714;SDS011;20043;50.998;4.754;2023-04-16T02:20:18;19.85;;;4.40;;
33714;SDS011;20043;50.998;4.754;2023-04-16T02:22:44;17.30;;;4.60;;
33714;SDS011;20043;50.998;4.754;2023-04-16T02:25:10;12.20;;;4.22;;
33714;SDS011;20043;50.998;4.754;2023-04-16T02:27:35;15.18;;;4.68;;
33714;SDS011;20043;50.998;4.754;2023-04-16T02:30:01;14.63;;;4.50;;
33714;SDS011;20043;50.998;4.754;2023-04-16T02:32:28;12.98;;;4.47;;
33714;SDS011;20043;50.998;4.754;2023-04-16T02:34:54;14.75;;;4.22;;
33714;SDS011;20043;50.998;4.754;2023-04-16T02:37:21;13.43;;;3.50;;
33714;SDS011;20043;50.998;4.754;2023-04-16T02:39:47;12.80;;;3.95;;
33714;SDS011;20043;50.998;4.754;2023-04-16T02:42:14;15.60;;;4.32;;
33714;SDS011;20043;50.998;4.754;2023-04-16T02:44:40;11.65;;;4.10;;
33714;SDS011;20043;50.998;4.754;2023-04-16T02:47:05;15.35;;;4.50;;
33714;SDS011;20043;50.998;4.754;2023-04-16T02:49:31;17.25;;;4.65;;
33714;SDS011;20043;50.998;4.754;2023-04-16T02:51:57;13.00;;;4.47;;
33714;SDS011;20043;50.998;4.754;2023-04-16T02:54:22;13.90;;;4.05;;
33714;SDS011;20043;50.998;4.754;2023-04-16T02:56:48;14.10;;;4.30;;
33714;SDS011;20043;50.998;4.754;2023-04-16T02:59:13;14.93;;;4.65;;
33714;SDS011;20043;50.998;4.754;2023-04-16T03:01:39;14.63;;;4.68;;
33714;SDS011;20043;50.998;4.754;2023-04-16T03:04:04;13.40;;;4.80;;
33714;SDS011;20043;50.998;4.754;2023-04-16T03:06:30;13.65;;;4.60;;
33714;SDS011;20043;50.998;4.754;2023-04-16T03:08:56;14.88;;;4.15;;
33714;SDS011;20043;50.998;4.754;2023-04-16T03:11:21;16.02;;;4.32;;
33714;SDS011;20043;50.998;4.754;2023-04-16T03:13:47;12.55;;;4.72;;
33714;SDS011;20043;50.998;4.754;2023-04-16T03:16:13;14.77;;;4.60;;
33714;SDS011;20043;50.998;4.754;2023-04-16T03:18:39;11.25;;;4.30;;
33714;SDS011;20043;50.998;4.754;2023-04-16T03:21:05;18.10;;;4.72;;
33714;SDS011;20043;50.998;4.754;2023-04-16T03:23:30;15.20;;;4.50;;
33714;SDS011;20043;50.998;4.754;2023-04-16T03:25:56;13.45;;;5.13;;
33714;SDS011;20043;50.998;4.754;2023-04-16T03:28:21;16.60;;;4.55;;
33714;SDS011;20043;50.998;4.754;2023-04-16T03:30:50;15.68;;;5.03;;
33714;SDS011;20043;50.998;4.754;2023-04-16T03:33:17;16.58;;;5.28;;
33714;SDS011;20043;50.998;4.754;2023-04-16T03:35:44;14.93;;;6.03;;
33714;SDS011;20043;50.998;4.754;2023-04-16T03:38:09;15.25;;;5.72;;
33714;SDS011;20043;50.998;4.754;2023-04-16T03:40:36;13.25;;;5.43;;
33714;SDS011;20043;50.998;4.754;2023-04-16T03:43:01;13.02;;;5.32;;
33714;SDS011;20043;50.998;4.754;2023-04-16T03:45:27;11.95;;;5.70;;
33714;SDS011;20043;50.998;4.754;2023-04-16T03:47:52;16.75;;;6.07;;
33714;SDS011;20043;50.998;4.754;2023-04-16T03:50:18;15.18;;;5.95;;
33714;SDS011;20043;50.998;4.754;2023-04-16T03:52:44;16.60;;;6.07;;
33714;SDS011;20043;50.998;4.754;2023-04-16T03:55:10;19.08;;;6.40;;
33714;SDS011;20043;50.998;4.754;2023-04-16T03:57:36;17.67;;;6.68;;
33714;SDS011;20043;50.998;4.754;2023-04-16T04:00:02;17.85;;;6.80;;
33714;SDS011;20043;50.998;4.754;2023-04-16T04:02:28;16.40;;;6.60;;
33714;SDS011;20043;50.998;4.754;2023-04-16T04:04:54;17.40;;;7.30;;
33714;SDS011;20043;50.998;4.754;2023-04-16T04:07:20;18.35;;;7.13;;
33714;SDS011;20043;50.998;4.754;2023-04-16T04:09:45;17.85;;;7.70;;
33714;SDS011;20043;50.998;4.754;2023-04-16T04:12:11;16.48;;;8.00;;
33714;SDS011;20043;50.998;4.754;2023-04-16T04:14:37;17.38;;;8.02;;
33714;SDS011;20043;50.998;4.754;2023-04-16T04:17:04;22.25;;;8.00;;
33714;SDS011;20043;50.998;4.754;2023-04-16T04:19:30;20.17;;;8.05;;
33714;SDS011;20043;50.998;4.754;2023-04-16T04:21:56;19.23;;;8.48;;
33714;SDS011;20043;50.998;4.754;2023-04-16T04:24:22;29.13;;;9.90;;
33714;SDS011;20043;50.998;4.754;2023-04-16T04:26:48;24.65;;;9.00;;
33714;SDS011;20043;50.998;4.754;2023-04-16T04:29:13;20.50;;;9.40;;
33714;SDS011;20043;50.998;4.754;2023-04-16T04:31:39;24.30;;;11.02;;
33714;SDS011;20043;50.998;4.754;2023-04-16T04:34:04;27.13;;;10.90;;
33714;SDS011;20043;50.998;4.754;2023-04-16T04:36:30;22.38;;;10.45;;
33714;SDS011;20043;50.998;4.754;2023-04-16T04:38:56;22.90;;;9.65;;
33714;SDS011;20043;50.998;4.754;2023-04-16T04:41:21;22.85;;;10.93;;
33714;SDS011;20043;50.998;4.754;2023-04-16T04:43:47;22.40;;;10.23;;
33714;SDS011;20043;50.998;4.754;2023-04-16T04:46:13;25.88;;;11.15;;
33714;SDS011;20043;50.998;4.754;2023-04-16T04:48:38;24.73;;;10.65;;
33714;SDS011;20043;50.998;4.754;2023-04-16T04:51:04;28.40;;;10.80;;
33714;SDS011;20043;50.998;4.754;2023-04-16T04:53:30;25.13;;;10.75;;
33714;SDS011;20043;50.998;4.754;2023-04-16T04:55:55;25.02;;;10.75;;
33714;SDS011;20043;50.998;4.754;2023-04-16T04:58:21;23.30;;;10.80;;
33714;SDS011;20043;50.998;4.754;2023-04-16T05:00:46;18.85;;;10.75;;
33714;SDS011;20043;50.998;4.754;2023-04-16T05:03:12;23.17;;;10.65;;
33714;SDS011;20043;50.998;4.754;2023-04-16T05:05:44;24.35;;;10.80;;
33714;SDS011;20043;50.998;4.754;2023-04-16T05:08:10;26.48;;;11.18;;
33714;SDS011;20043;50.998;4.754;2023-04-16T05:10:35;23.98;;;10.65;;
33714;SDS011;20043;50.998;4.754;2023-04-16T05:13:01;26.33;;;10.70;;
33714;SDS011;20043;50.998;4.754;2023-04-16T05:15:26;25.15;;;11.05;;
33714;SDS011;20043;50.998;4.754;2023-04-16T05:17:52;18.83;;;10.55;;
33714;SDS011;20043;50.998;4.754;2023-04-16T05:20:20;23.45;;;10.85;;
33714;SDS011;20043;50.998;4.754;2023-04-16T05:22:46;20.92;;;11.18;;
33714;SDS011;20043;50.998;4.754;2023-04-16T05:25:13;23.85;;;10.00;;
33714;SDS011;20043;50.998;4.754;2023-04-16T05:27:38;19.35;;;10.25;;
33714;SDS011;20043;50.998;4.754;2023-04-16T05:30:04;22.52;;;10.48;;
33714;SDS011;20043;50.998;4.754;2023-04-16T05:32:30;21.75;;;11.60;;
33714;SDS011;20043;50.998;4.754;2023-04-16T05:34:56;16.67;;;10.88;;
33714;SDS011;20043;50.998;4.754;2023-04-16T05:37:21;18.80;;;11.00;;
33714;SDS011;20043;50.998;4.754;2023-04-16T05:39:47;20.58;;;12.10;;
33714;SDS011;20043;50.998;4.754;2023-04-16T05:42:13;24.33;;;12.43;;
33714;SDS011;20043;50.998;4.754;2023-04-16T05:44:39;24.40;;;11.90;;
33714;SDS011;20043;50.998;4.754;2023-04-16T05:47:04;22.98;;;12.02;;
33714;SDS011;20043;50.998;4.754;2023-04-16T05:49:33;17.77;;;11.30;;
33714;SDS011;20043;50.998;4.754;2023-04-16T05:52:00;20.55;;;12.35;;
33714;SDS011;20043;50.998;4.754;2023-04-16T05:54:25;21.75;;;11.73;;
33714;SDS011;20043;50.998;4.754;2023-04-16T05:56:51;19.17;;;10.88;;
33714;SDS011;20043;50.998;4.754;2023-04-16T05:59:16;25.95;;;11.73;;
33714;SDS011;20043;50.998;4.754;2023-04-16T06:01:42;19.48;;;11.10;;
33714;SDS011;20043;50.998;4.754;2023-04-16T06:04:07;26.25;;;11.43;;
33714;SDS011;20043;50.998;4.754;2023-04-16T06:06:33;14.48;;;10.82;;
33714;SDS011;20043;50.998;4.754;2023-04-16T06:09:01;22.95;;;12.07;;
33714;SDS011;20043;50.998;4.754;2023-04-16T06:11:28;22.80;;;12.10;;
33714;SDS011;20043;50.998;4.754;2023-04-16T06:13:54;20.13;;;11.52;;
33714;SDS011;20043;50.998;4.754;2023-04-16T06:16:20;17.42;;;10.85;;
33714;SDS011;20043;50.998;4.754;2023-04-16T06:18:46;13.60;;;10.45;;
33714;SDS011;20043;50.998;4.754;2023-04-16T06:21:11;20.95;;;10.90;;
33714;SDS011;20043;50.998;4.754;2023-04-16T06:23:37;16.63;;;11.30;;
33714;SDS011;20043;50.998;4.754;2023-04-16T06:26:03;25.48;;;12.63;;
33714;SDS011;20043;50.998;4.754;2023-04-16T06:28:29;24.60;;;12.32;;
33714;SDS011;20043;50.998;4.754;2023-04-16T06:30:55;16.63;;;12.02;;
33714;SDS011;20043;50.998;4.754;2023-04-16T06:33:21;24.23;;;12.40;;
33714;SDS011;20043;50.998;4.754;2023-04-16T06:35:47;21.55;;;11.68;;
33714;SDS011;20043;50.998;4.754;2023-04-16T06:38:13;23.65;;;11.80;;
33714;SDS011;20043;50.998;4.754;2023-04-16T06:40:39;19.60;;;11.95;;
33714;SDS011;20043;50.998;4.754;2023-04-16T06:43:04;22.02;;;12.60;;
33714;SDS011;20043;50.998;4.754;2023-04-16T06:45:30;18.73;;;12.52;;
33714;SDS011;20043;50.998;4.754;2023-04-16T06:47:56;22.58;;;13.13;;
33714;SDS011;20043;50.998;4.754;2023-04-16T06:50:23;22.08;;;12.05;;
33714;SDS011;20043;50.998;4.754;2023-04-16T06:52:50;22.48;;;13.27;;
33714;SDS011;20043;50.998;4.754;2023-04-16T06:55:16;20.92;;;12.98;;
33714;SDS011;20043;50.998;4.754;2023-04-16T06:57:42;18.08;;;12.13;;
33714;SDS011;20043;50.998;4.754;2023-04-16T07:00:07;19.55;;;11.30;;
33714;SDS011;20043;50.998;4.754;2023-04-16T07:02:33;18.40;;;11.73;;
33714;SDS011;20043;50.998;4.754;2023-04-16T07:04:59;20.23;;;11.73;;
33714;SDS011;20043;50.998;4.754;2023-04-16T07:07:32;31.00;;;12.65;;
33714;SDS011;20043;50.998;4.754;2023-04-16T07:09:58;24.38;;;12.20;;
33714;SDS011;20043;50.998;4.754;2023-04-16T07:12:24;22.90;;;11.85;;
33714;SDS011;20043;50.998;4.754;2023-04-16T07:14:49;25.70;;;12.93;;
33714;SDS011;20043;50.998;4.754;2023-04-16T07:17:15;18.55;;;12.50;;
33714;SDS011;20043;50.998;4.754;2023-04-16T07:19:41;25.45;;;12.38;;
33714;SDS011;20043;50.998;4.754;2023-04-16T07:22:06;22.95;;;13.23;;
33714;SDS011;20043;50.998;4.754;2023-04-16T07:24:32;24.75;;;13.77;;
33714;SDS011;20043;50.998;4.754;2023-04-16T07:26:57;25.05;;;13.32;;
33714;SDS011;20043;50.998;4.754;2023-04-16T07:29:23;25.27;;;14.10;;
33714;SDS011;20043;50.998;4.754;2023-04-16T07:31:48;22.05;;;13.25;;
33714;SDS011;20043;50.998;4.754;2023-04-16T07:34:14;25.63;;;13.52;;
33714;SDS011;20043;50.998;4.754;2023-04-16T07:36:40;18.65;;;12.77;;
33714;SDS011;20043;50.998;4.754;2023-04-16T07:39:05;22.33;;;12.63;;
33714;SDS011;20043;50.998;4.754;2023-04-16T07:41:31;26.50;;;13.63;;
33714;SDS011;20043;50.998;4.754;2023-04-16T07:43:57;26.10;;;13.60;;
33714;SDS011;20043;50.998;4.754;2023-04-16T07:46:23;21.73;;;12.88;;
33714;SDS011;20043;50.998;4.754;2023-04-16T07:48:48;27.63;;;13.15;;
33714;SDS011;20043;50.998;4.754;2023-04-16T07:51:14;28.08;;;12.93;;
33714;SDS011;20043;50.998;4.754;2023-04-16T07:53:39;23.75;;;12.40;;
33714;SDS011;20043;50.998;4.754;2023-04-16T07:56:07;26.02;;;12.05;;
33714;SDS011;20043;50.998;4.754;2023-04-16T07:58:33;24.35;;;13.52;;
33714;SDS011;20043;50.998;4.754;2023-04-16T08:00:58;21.02;;;13.60;;
33714;SDS011;20043;50.998;4.754;2023-04-16T08:03:25;22.92;;;13.40;;
33714;SDS011;20043;50.998;4.754;2023-04-16T08:05:50;26.35;;;12.90;;
33714;SDS011;20043;50.998;4.754;2023-04-16T08:08:16;20.67;;;12.48;;
33714;SDS011;20043;50.998;4.754;2023-04-16T08:10:42;26.67;;;12.82;;
33714;SDS011;20043;50.998;4.754;2023-04-16T08:13:07;25.15;;;12.40;;
33714;SDS011;20043;50.998;4.754;2023-04-16T08:15:33;25.23;;;13.43;;
33714;SDS011;20043;50.998;4.754;2023-04-16T08:17:58;27.45;;;12.82;;
33714;SDS011;20043;50.998;4.754;2023-04-16T08:20:24;27.33;;;13.27;;
33714;SDS011;20043;50.998;4.754;2023-04-16T08:22:50;25.20;;;12.98;;
33714;SDS011;20043;50.998;4.754;2023-04-16T08:25:17;25.77;;;13.80;;
33714;SDS011;20043;50.998;4.754;2023-04-16T08:27:44;24.45;;;13.32;;
33714;SDS011;20043;50.998;4.754;2023-04-16T08:30:10;29.25;;;13.75;;
33714;SDS011;20043;50.998;4.754;2023-04-16T08:32:35;23.80;;;13.10;;
33714;SDS011;20043;50.998;4.754;2023-04-16T08:35:01;27.58;;;14.57;;
33714;SDS011;20043;50.998;4.754;2023-04-16T08:37:27;27.42;;;13.52;;
33714;SDS011;20043;50.998;4.754;2023-04-16T08:39:52;30.25;;;14.43;;
33714;SDS011;20043;50.998;4.754;2023-04-16T08:42:20;34.83;;;14.30;;
33714;SDS011;20043;50.998;4.754;2023-04-16T08:44:54;28.88;;;14.77;;
33714;SDS011;20043;50.998;4.754;2023-04-16T08:47:33;28.60;;;14.60;;
33714;SDS011;20043;50.998;4.754;2023-04-16T08:50:03;25.58;;;13.70;;
33714;SDS011;20043;50.998;4.754;2023-04-16T08:52:30;30.45;;;13.05;;
33714;SDS011;20043;50.998;4.754;2023-04-16T08:57:43;29.50;;;14.10;;
33714;SDS011;20043;50.998;4.754;2023-04-16T09:00:15;39.22;;;14.15;;
33714;SDS011;20043;50.998;4.754;2023-04-16T09:02:41;27.75;;;13.77;;
33714;SDS011;20043;50.998;4.754;2023-04-16T09:05:07;32.53;;;13.95;;
33714;SDS011;20043;50.998;4.754;2023-04-16T09:07:34;27.83;;;13.68;;
33714;SDS011;20043;50.998;4.754;2023-04-16T09:10:01;30.95;;;13.73;;
33714;SDS011;20043;50.998;4.754;2023-04-16T09:12:28;27.77;;;13.02;;
33714;SDS011;20043;50.998;4.754;2023-04-16T09:14:54;27.75;;;12.95;;
33714;SDS011;20043;50.998;4.754;2023-04-16T09:17:21;31.65;;;12.73;;
33714;SDS011;20043;50.998;4.754;2023-04-16T09:19:46;35.95;;;11.95;;
33714;SDS011;20043;50.998;4.754;2023-04-16T09:22:12;30.75;;;12.25;;
33714;SDS011;20043;50.998;4.754;2023-04-16T09:24:37;30.75;;;11.13;;
33714;SDS011;20043;50.998;4.754;2023-04-16T09:27:03;26.92;;;11.35;;
33714;SDS011;20043;50.998;4.754;2023-04-16T09:29:36;24.42;;;10.95;;
33714;SDS011;20043;50.998;4.754;2023-04-16T09:32:04;30.13;;;12.30;;
33714;SDS011;20043;50.998;4.754;2023-04-16T09:34:31;25.25;;;11.75;;
33714;SDS011;20043;50.998;4.754;2023-04-16T09:37:16;26.02;;;11.65;;
33714;SDS011;20043;50.998;4.754;2023-04-16T09:39:43;23.17;;;10.43;;
33714;SDS011;20043;50.998;4.754;2023-04-16T09:42:09;29.63;;;11.40;;
33714;SDS011;20043;50.998;4.754;2023-04-16T09:44:36;23.13;;;11.07;;
33714;SDS011;20043;50.998;4.754;2023-04-16T09:47:06;25.20;;;10.77;;
33714;SDS011;20043;50.998;4.754;2023-04-16T09:49:42;26.98;;;11.35;;
33714;SDS011;20043;50.998;4.754;2023-04-16T09:54:44;22.30;;;10.67;;
33714;SDS011;20043;50.998;4.754;2023-04-16T09:57:17;35.33;;;11.77;;
33714;SDS011;20043;50.998;4.754;2023-04-16T09:59:45;26.73;;;10.82;;
33714;SDS011;20043;50.998;4.754;2023-04-16T10:02:11;25.55;;;11.43;;
33714;SDS011;20043;50.998;4.754;2023-04-16T10:07:12;21.05;;;10.93;;
33714;SDS011;20043;50.998;4.754;2023-04-16T10:09:38;22.75;;;11.18;;
33714;SDS011;20043;50.998;4.754;2023-04-16T10:12:05;23.33;;;11.13;;
33714;SDS011;20043;50.998;4.754;2023-04-16T10:14:31;27.25;;;11.77;;
33714;SDS011;20043;50.998;4.754;2023-04-16T10:16:57;23.08;;;11.25;;
33714;SDS011;20043;50.998;4.754;2023-04-16T10:19:24;25.02;;;11.20;;
33714;SDS011;20043;50.998;4.754;2023-04-16T10:21:51;23.48;;;11.38;;
33714;SDS011;20043;50.998;4.754;2023-04-16T10:24:18;35.42;;;12.32;;
33714;SDS011;20043;50.998;4.754;2023-04-16T10:26:44;23.42;;;11.35;;
33714;SDS011;20043;50.998;4.754;2023-04-16T10:29:13;29.75;;;10.98;;
33714;SDS011;20043;50.998;4.754;2023-04-16T10:31:39;24.52;;;11.48;;
33714;SDS011;20043;50.998;4.754;2023-04-16T10:34:06;27.58;;;11.07;;
33714;SDS011;20043;50.998;4.754;2023-04-16T10:36:37;28.75;;;11.23;;
33714;SDS011;20043;50.998;4.754;2023-04-16T10:39:03;21.48;;;10.93;;
33714;SDS011;20043;50.998;4.754;2023-04-16T10:41:35;21.95;;;11.20;;
33714;SDS011;20043;50.998;4.754;2023-04-16T10:44:04;26.20;;;10.75;;
33714;SDS011;20043;50.998;4.754;2023-04-16T10:46:35;29.25;;;11.30;;
33714;SDS011;20043;50.998;4.754;2023-04-16T10:49:18;25.23;;;11.15;;
33714;SDS011;20043;50.998;4.754;2023-04-16T10:51:55;26.85;;;11.95;;
33714;SDS011;20043;50.998;4.754;2023-04-16T10:54:23;20.60;;;10.70;;
33714;SDS011;20043;50.998;4.754;2023-04-16T10:56:56;24.52;;;10.05;;
33714;SDS011;20043;50.998;4.754;2023-04-16T10:59:22;25.05;;;10.10;;
33714;SDS011;20043;50.998;4.754;2023-04-16T11:01:55;22.25;;;9.57;;
33714;SDS011;20043;50.998;4.754;2023-04-16T11:09:45;19.83;;;10.55;;
33714;SDS011;20043;50.998;4.754;2023-04-16T11:14:53;20.30;;;10.63;;
33714;SDS011;20043;50.998;4.754;2023-04-16T11:17:27;18.60;;;9.98;;
33714;SDS011;20043;50.998;4.754;2023-04-16T11:19:55;18.65;;;9.95;;
33714;SDS011;20043;50.998;4.754;2023-04-16T11:22:21;21.25;;;10.77;;
33714;SDS011;20043;50.998;4.754;2023-04-16T11:24:52;21.55;;;11.00;;
33714;SDS011;20043;50.998;4.754;2023-04-16T11:27:21;21.98;;;12.27;;
33714;SDS011;20043;50.998;4.754;2023-04-16T11:32:26;21.50;;;10.85;;
33714;SDS011;20043;50.998;4.754;2023-04-16T11:34:55;17.77;;;10.60;;
33714;SDS011;20043;50.998;4.754;2023-04-16T11:37:20;23.83;;;10.48;;
33714;SDS011;20043;50.998;4.754;2023-04-16T11:39:57;22.20;;;11.32;;
33714;SDS011;20043;50.998;4.754;2023-04-16T11:42:22;21.42;;;10.98;;
33714;SDS011;20043;50.998;4.754;2023-04-16T11:44:51;16.77;;;10.23;;
33714;SDS011;20043;50.998;4.754;2023-04-16T11:47:22;19.42;;;10.02;;
33714;SDS011;20043;50.998;4.754;2023-04-16T11:49:48;18.58;;;10.52;;
33714;SDS011;20043;50.998;4.754;2023-04-16T11:52:26;16.27;;;10.50;;
33714;SDS011;20043;50.998;4.754;2023-04-16T11:54:54;18.98;;;10.68;;
33714;SDS011;20043;50.998;4.754;2023-04-16T11:57:26;17.58;;;11.27;;
33714;SDS011;20043;50.998;4.754;2023-04-16T11:59:53;20.27;;;11.20;;
33714;SDS011;20043;50.998;4.754;2023-04-16T12:05:04;19.77;;;11.25;;
33714;SDS011;20043;50.998;4.754;2023-04-16T12:07:42;25.58;;;11.65;;
33714;SDS011;20043;50.998;4.754;2023-04-16T12:10:08;18.50;;;11.70;;
33714;SDS011;20043;50.998;4.754;2023-04-16T12:12:34;16.15;;;10.88;;
33714;SDS011;20043;50.998;4.754;2023-04-16T12:15:00;18.38;;;10.95;;
33714;SDS011;20043;50.998;4.754;2023-04-16T12:17:30;16.48;;;11.35;;
33714;SDS011;20043;50.998;4.754;2023-04-16T12:19:58;18.17;;;11.35;;
33714;SDS011;20043;50.998;4.754;2023-04-16T12:22:34;19.10;;;11.27;;
33714;SDS011;20043;50.998;4.754;2023-04-16T12:25:01;28.05;;;12.82;;
33714;SDS011;20043;50.998;4.754;2023-04-16T12:27:51;35.35;;;14.35;;
33714;SDS011;20043;50.998;4.754;2023-04-16T12:30:22;28.73;;;15.45;;
33714;SDS011;20043;50.998;4.754;2023-04-16T12:32:50;25.70;;;15.63;;
33714;SDS011;20043;50.998;4.754;2023-04-16T12:35:35;24.27;;;15.65;;
33714;SDS011;20043;50.998;4.754;2023-04-16T12:38:01;29.73;;;16.30;;
33714;SDS011;20043;50.998;4.754;2023-04-16T12:40:27;28.33;;;17.25;;
33714;SDS011;20043;50.998;4.754;2023-04-16T12:42:53;28.98;;;16.60;;
33714;SDS011;20043;50.998;4.754;2023-04-16T12:45:18;31.23;;;16.52;;
33714;SDS011;20043;50.998;4.754;2023-04-16T12:47:45;25.65;;;15.93;;
33714;SDS011;20043;50.998;4.754;2023-04-16T12:50:10;31.00;;;17.58;;
33714;SDS011;20043;50.998;4.754;2023-04-16T12:52:36;27.20;;;16.40;;
33714;SDS011;20043;50.998;4.754;2023-04-16T12:55:02;32.72;;;18.05;;
33714;SDS011;20043;50.998;4.754;2023-04-16T12:57:27;31.45;;;18.23;;
33714;SDS011;20043;50.998;4.754;2023-04-16T12:59:54;29.42;;;17.88;;
33714;SDS011;20043;50.998;4.754;2023-04-16T13:02:20;33.55;;;16.40;;
33714;SDS011;20043;50.998;4.754;2023-04-16T13:04:47;33.55;;;16.65;;
33714;SDS011;20043;50.998;4.754;2023-04-16T13:07:13;29.08;;;16.77;;
33714;SDS011;20043;50.998;4.754;2023-04-16T13:09:39;27.23;;;16.58;;
33714;SDS011;20043;50.998;4.754;2023-04-16T13:12:05;28.60;;;17.27;;
33714;SDS011;20043;50.998;4.754;2023-04-16T13:14:31;28.88;;;16.83;;
33714;SDS011;20043;50.998;4.754;2023-04-16T13:16:56;34.28;;;17.67;;
33714;SDS011;20043;50.998;4.754;2023-04-16T13:19:22;30.95;;;17.30;;
33714;SDS011;20043;50.998;4.754;2023-04-16T13:21:47;35.38;;;18.23;;
33714;SDS011;20043;50.998;4.754;2023-04-16T13:24:13;35.17;;;17.35;;
33714;SDS011;20043;50.998;4.754;2023-04-16T13:26:39;32.22;;;17.77;;
33714;SDS011;20043;50.998;4.754;2023-04-16T13:29:04;32.90;;;17.80;;
33714;SDS011;20043;50.998;4.754;2023-04-16T13:31:30;33.67;;;17.63;;
33714;SDS011;20043;50.998;4.754;2023-04-16T13:33:56;30.15;;;17.20;;
33714;SDS011;20043;50.998;4.754;2023-04-16T13:36:21;29.48;;;17.48;;
33714;SDS011;20043;50.998;4.754;2023-04-16T13:38:47;28.27;;;17.00;;
33714;SDS011;20043;50.998;4.754;2023-04-16T13:41:12;29.88;;;15.00;;
33714;SDS011;20043;50.998;4.754;2023-04-16T13:43:38;29.80;;;14.50;;
33714;SDS011;20043;50.998;4.754;2023-04-16T13:46:03;30.77;;;15.23;;
33714;SDS011;20043;50.998;4.754;2023-04-16T13:48:29;26.60;;;15.55;;
33714;SDS011;20043;50.998;4.754;2023-04-16T13:50:55;30.88;;;15.07;;
33714;SDS011;20043;50.998;4.754;2023-04-16T13:53:20;22.30;;;13.32;;
33714;SDS011;20043;50.998;4.754;2023-04-16T13:55:46;28.98;;;13.15;;
33714;SDS011;20043;50.998;4.754;2023-04-16T13:58:13;26.23;;;12.90;;
33714;SDS011;20043;50.998;4.754;2023-04-16T14:00:39;20.98;;;12.40;;
33714;SDS011;20043;50.998;4.754;2023-04-16T14:03:06;24.98;;;12.75;;
33714;SDS011;20043;50.998;4.754;2023-04-16T14:05:32;20.92;;;12.40;;
33714;SDS011;20043;50.998;4.754;2023-04-16T14:07:58;25.13;;;14.35;;
33714;SDS011;20043;50.998;4.754;2023-04-16T14:10:23;23.40;;;12.50;;
33714;SDS011;20043;50.998;4.754;2023-04-16T14:12:49;26.35;;;13.05;;
33714;SDS011;20043;50.998;4.754;2023-04-16T14:15:15;18.27;;;12.05;;
33714;SDS011;20043;50.998;4.754;2023-04-16T14:17:41;25.05;;;15.48;;
33714;SDS011;20043;50.998;4.754;2023-04-16T14:20:08;28.65;;;16.00;;
33714;SDS011;20043;50.998;4.754;2023-04-16T14:22:35;31.50;;;17.73;;
33714;SDS011;20043;50.998;4.754;2023-04-16T14:25:01;36.08;;;18.05;;
33714;SDS011;20043;50.998;4.754;2023-04-16T14:27:27;29.75;;;17.13;;
33714;SDS011;20043;50.998;4.754;2023-04-16T14:29:52;31.20;;;16.77;;
33714;SDS011;20043;50.998;4.754;2023-04-16T14:32:18;29.85;;;16.88;;
33714;SDS011;20043;50.998;4.754;2023-04-16T14:34:44;29.00;;;17.15;;
33714;SDS011;20043;50.998;4.754;2023-04-16T14:37:10;26.42;;;18.33;;
33714;SDS011;20043;50.998;4.754;2023-04-16T14:39:36;30.05;;;17.75;;
33714;SDS011;20043;50.998;4.754;2023-04-16T14:42:03;32.80;;;18.75;;
33714;SDS011;20043;50.998;4.754;2023-04-16T14:44:36;28.63;;;17.83;;